createdAt,value
2022-12-17T00:01:54.988Z,99931.44
2022-12-17T00:05:17.468Z,99931.69
2022-12-17T00:08:38.287Z,99928.59
2022-12-17T00:11:59.320Z,99930.41
2022-12-17T00:15:20.112Z,99918.09
2022-12-17T00:18:41.905Z,99921.72
2022-12-17T00:22:02.821Z,99925.25
2022-12-17T00:25:24.633Z,99934.91
2022-12-17T00:28:45.465Z,99931.31
2022-12-17T00:32:06.537Z,99938.78
2022-12-17T00:35:27.317Z,99929.00
2022-12-17T00:38:48.078Z,99912.19
2022-12-17T00:42:08.767Z,99908.53
2022-12-17T00:45:30.733Z,99904.63
2022-12-17T00:48:51.606Z,99906.66
2022-12-17T00:52:13.054Z,99913.81
2022-12-17T00:55:33.753Z,99937.16
2022-12-17T00:58:54.574Z,99947.03
2022-12-17T01:02:15.504Z,99957.50
2022-12-17T01:05:36.385Z,99960.03
2022-12-17T01:08:56.949Z,99976.88
2022-12-17T01:12:17.664Z,99976.09
2022-12-17T01:15:38.496Z,100005.06
2022-12-17T01:18:59.453Z,100017.25
2022-12-17T01:22:20.323Z,100026.31
2022-12-17T01:25:41.431Z,100000.16
2022-12-17T01:29:02.262Z,100026.97
2022-12-17T01:32:24.793Z,100032.66
2022-12-17T01:35:45.693Z,100026.78
2022-12-17T01:39:06.706Z,100047.53
2022-12-17T01:42:31.212Z,100046.50
2022-12-17T01:46:01.910Z,100043.38
2022-12-17T01:49:23.130Z,100045.50
2022-12-17T01:52:44.084Z,100037.75
2022-12-17T01:56:05.200Z,100049.69
2022-12-17T01:59:27.692Z,100049.38
2022-12-17T02:02:48.464Z,100053.81
2022-12-17T02:06:45.011Z,100054.25
2022-12-17T02:10:16.896Z,100062.22
2022-12-17T02:13:42.104Z,100050.50
2022-12-17T02:17:10.178Z,100056.78
2022-12-17T02:20:55.640Z,100050.87
2022-12-17T02:24:32.452Z,100049.63
2022-12-17T02:27:54.448Z,100048.59
2022-12-17T02:31:16.331Z,100041.47
2022-12-17T02:34:37.533Z,100034.22
2022-12-17T02:38:05.280Z,100033.50
2022-12-17T02:41:31.353Z,100036.56
2022-12-17T02:44:53.625Z,100042.84
2022-12-17T02:48:15.402Z,100061.56
2022-12-17T02:51:36.675Z,100062.69
2022-12-17T02:54:58.975Z,100064.84
2022-12-17T02:58:19.694Z,100067.78
2022-12-17T03:01:40.714Z,100077.63
2022-12-17T03:05:21.137Z,100086.44
2022-12-17T03:08:44.029Z,100091.50
2022-12-17T03:12:04.989Z,100109.09
2022-12-17T03:15:26.476Z,100114.63
2022-12-17T03:18:47.307Z,100114.50
2022-12-17T03:22:08.522Z,100109.94
2022-12-17T03:25:29.298Z,100098.97
2022-12-17T03:28:50.153Z,100095.91
2022-12-17T03:32:10.878Z,100099.19
2022-12-17T03:35:32.195Z,100097.00
2022-12-17T03:38:53.145Z,100106.72
2022-12-17T03:42:14.486Z,100114.19
2022-12-17T03:45:35.433Z,100114.38
2022-12-17T03:48:56.495Z,100112.41
2022-12-17T03:52:17.298Z,100094.22
2022-12-17T03:55:38.049Z,100112.69
2022-12-17T03:58:58.969Z,100121.31
2022-12-17T04:02:20.338Z,100121.87
2022-12-17T04:05:41.380Z,100127.03
2022-12-17T04:09:02.262Z,100128.06
2022-12-17T04:12:23.301Z,100133.72
2022-12-17T04:15:43.832Z,100133.09
2022-12-17T04:19:04.694Z,100138.94
2022-12-17T04:22:25.618Z,100131.63
2022-12-17T04:25:46.984Z,100113.88
2022-12-17T04:29:07.845Z,100121.16
2022-12-17T04:32:33.615Z,100121.53
2022-12-17T04:35:56.221Z,100124.78
2022-12-17T04:39:17.088Z,100142.84
2022-12-17T04:42:37.996Z,100168.34
2022-12-17T04:45:59.141Z,100170.72
2022-12-17T04:49:20.098Z,100175.19
2022-12-17T04:52:41.456Z,100186.94
2022-12-17T04:56:02.352Z,100187.25
2022-12-17T04:59:23.452Z,100198.62
2022-12-17T05:02:44.623Z,100196.22
2022-12-17T05:06:05.837Z,100207.63
2022-12-17T05:09:26.672Z,100203.19
2022-12-17T05:12:47.456Z,100209.41
2022-12-17T05:16:14.916Z,100215.78
2022-12-17T05:19:35.829Z,100215.25
2022-12-17T05:22:56.549Z,100202.34
2022-12-17T05:26:23.994Z,100223.37
2022-12-17T05:29:44.818Z,100214.59
2022-12-17T05:33:05.549Z,100223.25
2022-12-17T05:36:26.895Z,100234.63
2022-12-17T05:39:47.766Z,100235.38
2022-12-17T05:43:20.181Z,100254.37
2022-12-17T05:46:41.142Z,100255.16
2022-12-17T05:50:01.833Z,100265.53
2022-12-17T05:53:24.169Z,100268.91
2022-12-17T05:56:45.048Z,100281.78
2022-12-17T06:00:06.054Z,100276.47
2022-12-17T06:03:33.069Z,100282.81
2022-12-17T06:06:54.154Z,100274.25
2022-12-17T06:10:15.119Z,100287.44
2022-12-17T06:13:36.519Z,100302.25
2022-12-17T06:16:57.633Z,100292.75
2022-12-17T06:20:18.812Z,100295.31
2022-12-17T06:23:39.537Z,100307.31
2022-12-17T06:27:00.384Z,100324.59
2022-12-17T06:30:21.358Z,100330.62
2022-12-17T06:33:42.041Z,100341.03
2022-12-17T06:37:04.004Z,100334.94
2022-12-17T06:40:45.355Z,100343.69
2022-12-17T06:44:06.379Z,100337.62
2022-12-17T06:47:27.348Z,100357.41
2022-12-17T06:50:48.117Z,100358.22
2022-12-17T06:54:09.345Z,100367.59
2022-12-17T06:57:30.064Z,100367.47
2022-12-17T07:00:50.955Z,100367.88
2022-12-17T07:04:11.467Z,100385.25
2022-12-17T07:07:32.315Z,100399.94
2022-12-17T07:10:53.121Z,100407.69
2022-12-17T07:14:14.873Z,100410.44
2022-12-17T07:17:35.663Z,100405.31
2022-12-17T07:20:56.546Z,100402.06
2022-12-17T07:24:17.329Z,100402.87
2022-12-17T07:27:38.223Z,100419.28
2022-12-17T07:30:59.114Z,100429.94
2022-12-17T07:34:20.037Z,100421.28
2022-12-17T07:37:40.760Z,100431.69
2022-12-17T07:41:02.171Z,100440.87
2022-12-17T07:44:23.026Z,100454.69
2022-12-17T07:47:43.872Z,100464.78
2022-12-17T07:51:11.394Z,100464.78
2022-12-17T07:54:32.207Z,100473.06
2022-12-17T07:57:53.004Z,100464.56
2022-12-17T08:01:14.993Z,100463.34
2022-12-17T08:04:36.096Z,100467.53
2022-12-17T08:07:57.055Z,100468.88
2022-12-17T08:11:17.861Z,100467.81
2022-12-17T08:14:38.757Z,100463.44
2022-12-17T08:18:00.013Z,100468.69
2022-12-17T08:21:20.909Z,100493.69
2022-12-17T08:24:41.813Z,100493.63
2022-12-17T08:28:04.671Z,100508.66
2022-12-17T08:31:31.512Z,100513.44
2022-12-17T08:34:52.291Z,100527.84
2022-12-17T08:38:22.985Z,100526.91
2022-12-17T08:41:45.247Z,100529.81
2022-12-17T08:45:07.413Z,100524.47
2022-12-17T08:48:30.541Z,100527.78
2022-12-17T08:51:51.554Z,100532.34
2022-12-17T08:55:12.376Z,100536.97
2022-12-17T08:58:33.317Z,100535.28
2022-12-17T09:01:54.210Z,100526.66
2022-12-17T09:05:15.149Z,100535.00
2022-12-17T09:08:41.312Z,100550.13
2022-12-17T09:12:02.560Z,100565.38
2022-12-17T09:15:28.377Z,100545.97
2022-12-17T09:18:49.229Z,100548.63
2022-12-17T09:22:10.042Z,100554.47
2022-12-17T09:25:31.236Z,100557.19
2022-12-17T09:28:52.101Z,100586.00
2022-12-17T09:32:13.361Z,100585.19
2022-12-17T09:35:34.310Z,100589.50
2022-12-17T09:38:55.368Z,100584.44
2022-12-17T09:42:53.441Z,100582.81
2022-12-17T09:46:40.431Z,100585.19
2022-12-17T09:50:01.725Z,100579.84
2022-12-17T09:53:47.704Z,100587.38
2022-12-17T09:57:09.249Z,100594.44
2022-12-17T10:00:44.744Z,100584.75
2022-12-17T10:04:05.897Z,100606.50
2022-12-17T10:07:37.420Z,100603.94
2022-12-17T10:11:04.634Z,100617.22
2022-12-17T10:14:35.076Z,100623.19
2022-12-17T10:17:55.835Z,100632.22
2022-12-17T10:21:20.111Z,100636.47
2022-12-17T10:24:41.169Z,100639.28
2022-12-17T10:28:03.549Z,100652.00
2022-12-17T10:31:36.840Z,100666.06
2022-12-17T10:35:04.841Z,100650.34
2022-12-17T10:38:40.438Z,100655.88
2022-12-17T10:42:01.284Z,100664.25
2022-12-17T10:45:41.018Z,100669.47
2022-12-17T10:49:04.657Z,100694.75
2022-12-17T10:52:46.310Z,100695.72
2022-12-17T10:56:12.493Z,100706.22
2022-12-17T10:59:49.344Z,100704.50
2022-12-17T11:03:10.577Z,100714.22
2022-12-17T11:06:42.051Z,100713.53
2022-12-17T11:10:10.279Z,100730.38
2022-12-17T11:13:41.046Z,100730.00
2022-12-17T11:17:18.933Z,100760.59
2022-12-17T11:21:06.135Z,100753.91
2022-12-17T11:24:35.559Z,100750.34
2022-12-17T11:28:02.963Z,100748.53
2022-12-17T11:31:37.361Z,100755.44
2022-12-17T11:35:13.738Z,100743.94
2022-12-17T11:38:40.858Z,100754.06
2022-12-17T11:42:16.656Z,100763.84
2022-12-17T11:45:54.225Z,100780.44
2022-12-17T11:49:28.914Z,100782.13
2022-12-17T11:53:07.104Z,100788.03
2022-12-17T11:56:29.712Z,100800.41
2022-12-17T11:59:58.154Z,100813.00
2022-12-17T12:03:57.851Z,100806.37
2022-12-17T12:07:44.800Z,100802.72
2022-12-17T12:11:41.528Z,100811.00
2022-12-17T12:15:30.700Z,100816.78
2022-12-17T12:19:01.051Z,100825.59
2022-12-17T12:22:34.193Z,100852.69
2022-12-17T12:26:18.719Z,100847.63
2022-12-17T12:29:55.913Z,100852.56
2022-12-17T12:33:37.612Z,100846.25
2022-12-17T12:37:00.940Z,100859.66
2022-12-17T12:40:47.714Z,100845.84
2022-12-17T12:44:16.141Z,100844.38
2022-12-17T12:47:56.602Z,100833.44
2022-12-17T12:51:34.948Z,100838.88
2022-12-17T12:55:05.151Z,100864.09
2022-12-17T12:58:50.503Z,100861.31
2022-12-17T13:02:11.840Z,100853.59
2022-12-17T13:05:34.775Z,100872.94
2022-12-17T13:08:38.294Z,100870.94
2022-12-17T13:11:48.779Z,100885.28
2022-12-17T13:14:56.727Z,100877.22
2022-12-17T13:18:25.628Z,100888.88
2022-12-17T13:21:29.543Z,100899.16
2022-12-17T13:24:31.991Z,100899.66
2022-12-17T13:27:34.144Z,100905.09
2022-12-17T13:30:38.137Z,100920.88
2022-12-17T13:33:52.426Z,100936.69
2022-12-17T13:37:05.913Z,100941.53
2022-12-17T13:40:21.520Z,100952.66
2022-12-17T13:43:30.239Z,100943.81
2022-12-17T13:46:46.885Z,100964.31
2022-12-17T13:50:24.613Z,100967.56
2022-12-17T13:53:15.475Z,100968.00
2022-12-17T13:56:23.436Z,100952.50
2022-12-17T13:59:25.643Z,100980.91
2022-12-17T14:02:31.451Z,100980.28
2022-12-17T14:05:42.362Z,100987.66
2022-12-17T14:08:46.677Z,100997.97
2022-12-17T14:12:08.964Z,100989.50
2022-12-17T14:15:24.310Z,100998.94
2022-12-17T14:18:26.852Z,101004.28
2022-12-17T14:21:29.882Z,101015.81
2022-12-17T14:24:32.903Z,101022.88
2022-12-17T14:27:37.045Z,101023.94
2022-12-17T14:31:17.217Z,101037.81
2022-12-17T14:34:11.326Z,101037.37
2022-12-17T14:37:19.872Z,101047.31
2022-12-17T14:40:24.813Z,101051.69
2022-12-17T14:43:29.408Z,101064.94
2022-12-17T14:46:33.829Z,101065.94
2022-12-17T14:49:38.388Z,101072.13
2022-12-17T14:52:42.548Z,101062.78
2022-12-17T14:56:00.090Z,101073.12
2022-12-17T14:59:02.493Z,101086.22
2022-12-17T15:02:08.124Z,101082.72
2022-12-17T15:05:17.229Z,101097.44
2022-12-17T15:08:20.259Z,101105.31
2022-12-17T15:11:22.847Z,101110.38
2022-12-17T15:14:25.317Z,101109.56
2022-12-17T15:17:28.016Z,101122.66
2022-12-17T15:20:31.524Z,101135.75
2022-12-17T15:23:34.124Z,101136.62
2022-12-17T15:26:37.202Z,101145.31
2022-12-17T15:29:39.911Z,101142.88
2022-12-17T15:32:44.379Z,101139.28
2022-12-17T15:35:46.778Z,101155.91
2022-12-17T15:38:49.251Z,101155.19
2022-12-17T15:42:09.760Z,101162.16
2022-12-17T15:45:12.185Z,101158.63
2022-12-17T15:48:17.657Z,101172.34
2022-12-17T15:51:21.158Z,101168.84
2022-12-17T15:54:23.472Z,101171.53
2022-12-17T15:57:25.959Z,101186.37
2022-12-17T16:00:28.434Z,101188.03
2022-12-17T16:03:30.816Z,101177.69
2022-12-17T16:06:33.811Z,101197.84
2022-12-17T16:09:36.196Z,101188.28
2022-12-17T16:12:38.919Z,101186.66
2022-12-17T16:15:41.377Z,101176.28
2022-12-17T16:18:43.712Z,101189.22
2022-12-17T16:21:47.066Z,101202.13
2022-12-17T16:24:49.605Z,101205.84
2022-12-17T16:27:51.995Z,101202.38
2022-12-17T16:31:01.117Z,101207.47
2022-12-17T16:34:08.735Z,101217.88
2022-12-17T16:37:11.148Z,101236.06
2022-12-17T16:40:13.513Z,101231.84
2022-12-17T16:43:15.889Z,101232.69
2022-12-17T16:46:33.844Z,101238.75
2022-12-17T16:49:36.486Z,101240.47
2022-12-17T16:52:38.940Z,101245.81
2022-12-17T16:55:42.650Z,101257.16
2022-12-17T16:58:45.315Z,101257.16
2022-12-17T17:01:49.748Z,101278.00
2022-12-17T17:04:52.180Z,101280.50
2022-12-17T17:07:54.338Z,101276.19
2022-12-17T17:10:56.713Z,101273.66
2022-12-17T17:13:59.090Z,101276.31
2022-12-17T17:17:01.486Z,101273.66
2022-12-17T17:20:03.893Z,101289.16
2022-12-17T17:23:06.298Z,101288.28
2022-12-17T17:26:09.709Z,101289.12
2022-12-17T17:29:12.198Z,101306.50
2022-12-17T17:32:14.382Z,101302.91
2022-12-17T17:35:17.066Z,101297.81
2022-12-17T17:38:19.302Z,101289.19
2022-12-17T17:41:23.517Z,101304.84
2022-12-17T17:44:25.624Z,101314.31
2022-12-17T17:47:30.065Z,101302.22
2022-12-17T17:50:32.157Z,101321.31
2022-12-17T17:53:35.661Z,101309.22
2022-12-17T17:56:40.405Z,101327.44
2022-12-17T17:59:42.837Z,101325.69
2022-12-17T18:02:45.085Z,101323.03
2022-12-17T18:05:47.635Z,101333.50
2022-12-17T18:08:49.953Z,101341.25
2022-12-17T18:11:52.352Z,101337.81
2022-12-17T18:18:16.918Z,101350.03
2022-12-17T18:21:20.050Z,101355.25
2022-12-17T18:24:23.157Z,101360.41
2022-12-17T18:27:25.270Z,101382.94
2022-12-17T18:30:27.763Z,101380.34
2022-12-17T18:33:29.951Z,101384.75
2022-12-17T18:36:40.334Z,101385.59
2022-12-17T18:39:42.601Z,101396.88
2022-12-17T18:43:03.420Z,101397.75
2022-12-17T18:46:05.685Z,101413.31
2022-12-17T18:49:10.883Z,101428.09
2022-12-17T18:52:16.637Z,101431.59
2022-12-17T18:55:19.832Z,101439.38
2022-12-17T18:58:21.953Z,101454.09
2022-12-17T19:01:27.116Z,101460.16
2022-12-17T19:04:29.370Z,101454.97
2022-12-17T19:07:31.807Z,101473.16
2022-12-17T19:10:35.104Z,101483.56
2022-12-17T19:13:37.732Z,101478.41
2022-12-17T19:16:40.136Z,101493.22
2022-12-17T19:19:42.544Z,101489.81
2022-12-17T19:22:44.721Z,101510.56
2022-12-17T19:25:47.106Z,101505.38
2022-12-17T19:28:51.327Z,101502.69
2022-12-17T19:31:53.883Z,101509.72
2022-12-17T19:34:56.044Z,101514.91
2022-12-17T19:37:58.411Z,101526.09
2022-12-17T19:41:10.042Z,101534.81
2022-12-17T19:44:14.676Z,101548.66
2022-12-17T19:47:16.947Z,101550.47
2022-12-17T19:50:19.349Z,101548.72
2022-12-17T19:53:23.126Z,101550.50
2022-12-17T19:56:27.107Z,101560.03
2022-12-17T19:59:29.352Z,101560.91
2022-12-17T20:02:33.169Z,101565.28
2022-12-17T20:05:35.773Z,101583.47
2022-12-17T20:08:38.277Z,101575.66
2022-12-17T20:11:41.272Z,101589.50
2022-12-17T20:14:43.352Z,101595.50
2022-12-17T20:17:45.764Z,101585.97
2022-12-17T20:20:47.895Z,101585.94
2022-12-17T20:23:50.429Z,101589.37
2022-12-17T20:26:54.027Z,101594.56
2022-12-17T20:29:56.459Z,101609.31
2022-12-17T20:32:58.536Z,101599.78
2022-12-17T20:36:05.082Z,101617.13
2022-12-17T20:39:08.557Z,101622.34
2022-12-17T20:42:11.128Z,101630.97
2022-12-17T20:45:13.313Z,101637.06
2022-12-17T20:48:15.764Z,101644.88
2022-12-17T20:51:21.276Z,101641.41
2022-12-17T20:54:23.818Z,101650.91
2022-12-17T20:57:25.928Z,101654.37
2022-12-17T21:00:28.405Z,101659.56
2022-12-17T21:03:32.377Z,101658.72
2022-12-17T21:06:40.996Z,101663.91
2022-12-17T21:09:43.101Z,101676.91
2022-12-17T21:13:04.567Z,101682.97
2022-12-17T21:16:11.544Z,101692.50
2022-12-17T21:19:17.235Z,101689.88
2022-12-17T21:22:19.547Z,101707.22
2022-12-17T21:25:21.993Z,101707.22
2022-12-17T21:28:24.136Z,101706.34
2022-12-17T21:31:48.186Z,101708.94
2022-12-17T21:34:50.370Z,101720.19
2022-12-17T21:37:52.792Z,101719.34
2022-12-17T21:40:55.409Z,101715.88
2022-12-17T21:44:00.513Z,101715.00
2022-12-17T21:47:02.953Z,101721.94
2022-12-17T21:50:05.726Z,101718.47
2022-12-17T21:53:09.079Z,101723.66
2022-12-17T21:56:17.233Z,101729.72
2022-12-17T21:59:19.628Z,101728.87
2022-12-17T22:02:22.229Z,101735.78
2022-12-17T22:05:24.876Z,101728.87
2022-12-17T22:08:27.036Z,101738.37
2022-12-17T22:11:29.673Z,101744.47
2022-12-17T22:14:32.024Z,101741.00
2022-12-17T22:17:34.432Z,101741.00
2022-12-17T22:20:36.709Z,101752.25
2022-12-17T22:23:42.092Z,101760.91
2022-12-17T22:26:44.904Z,101768.72
2022-12-17T22:30:06.042Z,101772.16
2022-12-17T22:33:26.342Z,101777.34
2022-12-17T22:39:59.391Z,101786.00
2022-12-17T22:43:00.337Z,101785.16
2022-12-17T22:44:42.779Z,101790.34
2022-12-17T22:46:54.596Z,101791.22
2022-12-17T22:49:57.047Z,101796.37
2022-12-17T22:52:59.876Z,101812.78
2022-12-17T22:56:14.689Z,101813.69
2022-12-17T22:59:23.468Z,101821.50
2022-12-17T23:02:25.935Z,101821.50
2022-12-17T23:05:29.029Z,101828.44
2022-12-17T23:08:31.403Z,101831.03
2022-12-17T23:11:33.568Z,101836.22
2022-12-17T23:14:35.919Z,101838.81
2022-12-17T23:17:38.088Z,101837.97
2022-12-17T23:20:40.572Z,101843.16
2022-12-17T23:23:43.556Z,101844.03
2022-12-17T23:26:46.018Z,101855.25
2022-12-17T23:29:48.286Z,101844.03
2022-12-17T23:32:50.837Z,101849.22
2022-12-17T23:36:05.799Z,101861.31
2022-12-17T23:39:08.512Z,101863.06
2022-12-17T23:42:10.670Z,101865.66
2022-12-17T23:45:13.456Z,101877.78
2022-12-17T23:48:15.587Z,101883.84
2022-12-17T23:51:19.874Z,101884.66
2022-12-17T23:54:22.057Z,101898.53
2022-12-17T23:57:24.437Z,101901.09
